sensor_id;sensor_type;location;lat;lon;timestamp;pressure;altitude;pressure_sealevel;temperature;humidity
59104;BME280;51449;51.676;5.812;2022-10-10T00:01:07;101451.84;;;9.65;63.17
59104;BME280;51449;51.676;5.812;2022-10-10T00:03:29;101443.41;;;9.61;63.33
59104;BME280;51449;51.676;5.812;2022-10-10T00:05:51;101440.44;;;9.58;63.68
59104;BME280;51449;51.676;5.812;2022-10-10T00:08:13;101436.38;;;9.55;63.58
59104;BME280;51449;51.676;5.812;2022-10-10T00:10:35;101432.31;;;9.53;63.35
59104;BME280;51449;51.676;5.812;2022-10-10T00:12:58;101439.25;;;9.50;63.89
59104;BME280;51449;51.676;5.812;2022-10-10T00:15:20;101439.59;;;9.49;63.80
59104;BME280;51449;51.676;5.812;2022-10-10T00:17:43;101438.28;;;9.46;63.58
59104;BME280;51449;51.676;5.812;2022-10-10T00:20:06;101438.56;;;9.45;63.60
59104;BME280;51449;51.676;5.812;2022-10-10T00:22:28;101436.94;;;9.43;63.69
59104;BME280;51449;51.676;5.812;2022-10-10T00:24:50;101436.13;;;9.43;63.58
59104;BME280;51449;51.676;5.812;2022-10-10T00:27:12;101433.69;;;9.41;64.07
59104;BME280;51449;51.676;5.812;2022-10-10T00:29:33;101427.69;;;9.39;63.70
59104;BME280;51449;51.676;5.812;2022-10-10T00:31:56;101430.44;;;9.39;64.23
59104;BME280;51449;51.676;5.812;2022-10-10T00:34:18;101430.75;;;9.38;63.79
59104;BME280;51449;51.676;5.812;2022-10-10T00:36:39;101423.31;;;9.38;63.97
59104;BME280;51449;51.676;5.812;2022-10-10T00:39:01;101423.31;;;9.38;64.26
59104;BME280;51449;51.676;5.812;2022-10-10T00:41:23;101422.19;;;9.39;64.04
59104;BME280;51449;51.676;5.812;2022-10-10T00:44:10;101424.63;;;9.41;64.06
59104;BME280;51449;51.676;5.812;2022-10-10T00:46:34;101426.06;;;9.38;64.12
59104;BME280;51449;51.676;5.812;2022-10-10T00:48:56;101430.44;;;9.39;64.24
59104;BME280;51449;51.676;5.812;2022-10-10T00:51:19;101424.94;;;9.39;64.17
59104;BME280;51449;51.676;5.812;2022-10-10T00:54:02;101417.81;;;9.38;64.38
59104;BME280;51449;51.676;5.812;2022-10-10T00:56:30;101417.13;;;9.33;64.50
59104;BME280;51449;51.676;5.812;2022-10-10T00:59:00;101419.69;;;9.29;64.59
59104;BME280;51449;51.676;5.812;2022-10-10T01:01:25;101410.94;;;9.27;64.63
59104;BME280;51449;51.676;5.812;2022-10-10T01:03:48;101412.03;;;9.26;64.48
59104;BME280;51449;51.676;5.812;2022-10-10T01:06:10;101413.47;;;9.24;64.69
59104;BME280;51449;51.676;5.812;2022-10-10T01:08:32;101401.16;;;9.21;64.58
59104;BME280;51449;51.676;5.812;2022-10-10T01:27:25;101397.47;;;9.03;65.28
59104;BME280;51449;51.676;5.812;2022-10-10T01:29:56;101395.81;;;9.02;65.40
59104;BME280;51449;51.676;5.812;2022-10-10T01:32:35;101388.41;;;9.03;65.12
59104;BME280;51449;51.676;5.812;2022-10-10T01:38:31;101384.34;;;9.00;65.07
59104;BME280;51449;51.676;5.812;2022-10-10T01:41:05;101383.50;;;8.99;65.28
59104;BME280;51449;51.676;5.812;2022-10-10T01:43:42;101385.78;;;8.97;65.24
59104;BME280;51449;51.676;5.812;2022-10-10T01:46:12;101386.06;;;8.96;65.52
59104;BME280;51449;51.676;5.812;2022-10-10T01:48:37;101383.63;;;8.94;65.74
59104;BME280;51449;51.676;5.812;2022-10-10T01:51:35;101381.38;;;8.96;65.91
59104;BME280;51449;51.676;5.812;2022-10-10T01:57:20;101375.38;;;8.94;66.04
59104;BME280;51449;51.676;5.812;2022-10-10T02:02:38;101363.28;;;8.95;65.95
59104;BME280;51449;51.676;5.812;2022-10-10T02:10:50;101352.41;;;8.90;66.18
59104;BME280;51449;51.676;5.812;2022-10-10T02:13:17;101353.50;;;8.89;66.49
59104;BME280;51449;51.676;5.812;2022-10-10T02:15:41;101354.13;;;8.86;66.34
59104;BME280;51449;51.676;5.812;2022-10-10T02:18:08;101351.19;;;8.83;66.21
59104;BME280;51449;51.676;5.812;2022-10-10T02:20:32;101343.25;;;8.81;65.93
59104;BME280;51449;51.676;5.812;2022-10-10T02:22:55;101341.63;;;8.80;66.26
59104;BME280;51449;51.676;5.812;2022-10-10T02:25:21;101346.63;;;8.78;66.43
59104;BME280;51449;51.676;5.812;2022-10-10T02:27:56;101345.00;;;8.77;66.66
59104;BME280;51449;51.676;5.812;2022-10-10T02:30:27;101340.41;;;8.72;66.75
59104;BME280;51449;51.676;5.812;2022-10-10T02:32:55;101339.59;;;8.72;66.58
59104;BME280;51449;51.676;5.812;2022-10-10T02:35:25;101335.84;;;8.68;66.59
59104;BME280;51449;51.676;5.812;2022-10-10T02:37:53;101341.34;;;8.68;66.66
59104;BME280;51449;51.676;5.812;2022-10-10T02:40:20;101338.41;;;8.64;66.43
59104;BME280;51449;51.676;5.812;2022-10-10T02:42:46;101337.09;;;8.62;66.92
59104;BME280;51449;51.676;5.812;2022-10-10T02:45:10;101333.84;;;8.60;66.77
59104;BME280;51449;51.676;5.812;2022-10-10T02:47:32;101334.13;;;8.58;66.94
59104;BME280;51449;51.676;5.812;2022-10-10T02:49:53;101333.31;;;8.57;67.03
59104;BME280;51449;51.676;5.812;2022-10-10T02:52:15;101328.63;;;8.58;66.65
59104;BME280;51449;51.676;5.812;2022-10-10T02:54:38;101319.59;;;8.57;66.84
59104;BME280;51449;51.676;5.812;2022-10-10T02:56:59;101327.03;;;8.57;66.83
59104;BME280;51449;51.676;5.812;2022-10-10T02:59:21;101322.66;;;8.56;67.12
59104;BME280;51449;51.676;5.812;2022-10-10T03:01:43;101317.97;;;8.56;66.97
59104;BME280;51449;51.676;5.812;2022-10-10T03:04:05;101311.34;;;8.57;67.27
59104;BME280;51449;51.676;5.812;2022-10-10T03:06:27;101313.28;;;8.57;67.47
59104;BME280;51449;51.676;5.812;2022-10-10T03:08:49;101307.28;;;8.55;67.71
59104;BME280;51449;51.676;5.812;2022-10-10T03:11:11;101310.38;;;8.53;67.45
59104;BME280;51449;51.676;5.812;2022-10-10T03:13:32;101308.72;;;8.52;67.44
59104;BME280;51449;51.676;5.812;2022-10-10T03:15:55;101307.09;;;8.51;67.31
59104;BME280;51449;51.676;5.812;2022-10-10T03:18:16;101311.75;;;8.51;67.68
59104;BME280;51449;51.676;5.812;2022-10-10T03:20:39;101309.34;;;8.49;67.79
59104;BME280;51449;51.676;5.812;2022-10-10T03:23:01;101308.53;;;8.49;67.74
59104;BME280;51449;51.676;5.812;2022-10-10T03:25:23;101304.94;;;8.48;67.52
59104;BME280;51449;51.676;5.812;2022-10-10T03:27:44;101306.91;;;8.48;67.67
59104;BME280;51449;51.676;5.812;2022-10-10T03:30:07;101302.22;;;8.48;67.61
59104;BME280;51449;51.676;5.812;2022-10-10T03:32:29;101308.84;;;8.47;67.74
59104;BME280;51449;51.676;5.812;2022-10-10T03:34:51;101308.03;;;8.47;68.03
59104;BME280;51449;51.676;5.812;2022-10-10T03:37:13;101300.91;;;8.46;67.77
59104;BME280;51449;51.676;5.812;2022-10-10T03:39:34;101305.56;;;8.45;68.06
59104;BME280;51449;51.676;5.812;2022-10-10T03:41:56;101307.53;;;8.45;67.95
59104;BME280;51449;51.676;5.812;2022-10-10T03:44:18;101304.78;;;8.45;68.14
59104;BME280;51449;51.676;5.812;2022-10-10T03:46:40;101307.81;;;8.43;68.15
59104;BME280;51449;51.676;5.812;2022-10-10T03:49:02;101300.41;;;8.44;68.68
59104;BME280;51449;51.676;5.812;2022-10-10T03:51:24;101305.06;;;8.43;68.69
59104;BME280;51449;51.676;5.812;2022-10-10T03:53:46;101303.44;;;8.42;68.44
59104;BME280;51449;51.676;5.812;2022-10-10T03:56:07;101301.50;;;8.43;68.85
59104;BME280;51449;51.676;5.812;2022-10-10T03:58:29;101303.44;;;8.42;68.58
59104;BME280;51449;51.676;5.812;2022-10-10T04:00:55;101301.00;;;8.41;68.83
59104;BME280;51449;51.676;5.812;2022-10-10T04:03:18;101297.16;;;8.42;69.10
59104;BME280;51449;51.676;5.812;2022-10-10T04:05:40;101299.06;;;8.41;69.14
59104;BME280;51449;51.676;5.812;2022-10-10T04:08:02;101297.97;;;8.42;69.34
59104;BME280;51449;51.676;5.812;2022-10-10T04:10:25;101301.81;;;8.41;69.06
59104;BME280;51449;51.676;5.812;2022-10-10T04:12:47;101296.84;;;8.43;69.01
59104;BME280;51449;51.676;5.812;2022-10-10T04:15:09;101297.97;;;8.42;68.97
59104;BME280;51449;51.676;5.812;2022-10-10T04:17:31;101292.47;;;8.42;69.29
59104;BME280;51449;51.676;5.812;2022-10-10T04:19:53;101297.97;;;8.42;69.10
59104;BME280;51449;51.676;5.812;2022-10-10T04:22:15;101294.72;;;8.40;69.04
59104;BME280;51449;51.676;5.812;2022-10-10T04:24:37;101290.31;;;8.39;68.96
59104;BME280;51449;51.676;5.812;2022-10-10T04:26:59;101294.50;;;8.36;69.04
59104;BME280;51449;51.676;5.812;2022-10-10T04:29:20;101290.91;;;8.36;68.88
59104;BME280;51449;51.676;5.812;2022-10-10T04:31:42;101301.41;;;8.34;68.81
59104;BME280;51449;51.676;5.812;2022-10-10T04:34:04;101292.97;;;8.30;68.79
59104;BME280;51449;51.676;5.812;2022-10-10T04:36:26;101296.31;;;8.27;68.81
59104;BME280;51449;51.676;5.812;2022-10-10T04:38:48;101290.31;;;8.25;68.88
59104;BME280;51449;51.676;5.812;2022-10-10T04:41:10;101298.84;;;8.24;68.96
59104;BME280;51449;51.676;5.812;2022-10-10T04:43:32;101294.50;;;8.23;69.16
59104;BME280;51449;51.676;5.812;2022-10-10T04:45:56;101289.81;;;8.23;69.37
59104;BME280;51449;51.676;5.812;2022-10-10T04:48:21;101290.63;;;8.24;69.12
59104;BME280;51449;51.676;5.812;2022-10-10T04:50:43;101297.75;;;8.25;68.91
59104;BME280;51449;51.676;5.812;2022-10-10T04:53:05;101291.13;;;8.26;69.01
59104;BME280;51449;51.676;5.812;2022-10-10T04:55:26;101299.38;;;8.26;68.91
59104;BME280;51449;51.676;5.812;2022-10-10T04:57:48;101295.81;;;8.25;69.25
59104;BME280;51449;51.676;5.812;2022-10-10T05:00:10;101290.63;;;8.24;69.20
59104;BME280;51449;51.676;5.812;2022-10-10T05:02:32;101291.75;;;8.23;69.22
59104;BME280;51449;51.676;5.812;2022-10-10T05:04:54;101301.41;;;8.20;69.09
59104;BME280;51449;51.676;5.812;2022-10-10T05:07:16;101293.47;;;8.19;69.00
59104;BME280;51449;51.676;5.812;2022-10-10T05:09:38;101291.84;;;8.18;69.06
59104;BME280;51449;51.676;5.812;2022-10-10T05:12:00;101294.59;;;8.18;69.52
59104;BME280;51449;51.676;5.812;2022-10-10T05:14:22;101285.84;;;8.15;69.46
59104;BME280;51449;51.676;5.812;2022-10-10T05:16:43;101292.47;;;8.14;69.23
59104;BME280;51449;51.676;5.812;2022-10-10T05:19:05;101297.47;;;8.12;69.37
59104;BME280;51449;51.676;5.812;2022-10-10T05:21:27;101291.47;;;8.10;69.45
59104;BME280;51449;51.676;5.812;2022-10-10T05:23:49;101287.41;;;8.08;69.50
59104;BME280;51449;51.676;5.812;2022-10-10T05:26:11;101290.13;;;8.08;69.16
59104;BME280;51449;51.676;5.812;2022-10-10T05:28:33;101295.13;;;8.06;69.24
59104;BME280;51449;51.676;5.812;2022-10-10T05:30:57;101286.06;;;8.05;69.32
59104;BME280;51449;51.676;5.812;2022-10-10T05:33:18;101294.59;;;8.04;69.78
59104;BME280;51449;51.676;5.812;2022-10-10T05:35:40;101292.47;;;8.01;69.28
59104;BME280;51449;51.676;5.812;2022-10-10T05:38:03;101290.81;;;8.00;69.46
59104;BME280;51449;51.676;5.812;2022-10-10T05:40:26;101290.03;;;7.99;69.24
59104;BME280;51449;51.676;5.812;2022-10-10T05:42:48;101291.66;;;8.00;69.95
59104;BME280;51449;51.676;5.812;2022-10-10T05:45:10;101298.78;;;8.01;69.48
59104;BME280;51449;51.676;5.812;2022-10-10T05:47:32;101291.84;;;8.04;69.54
59104;BME280;51449;51.676;5.812;2022-10-10T05:49:54;101293.97;;;8.07;69.88
59104;BME280;51449;51.676;5.812;2022-10-10T05:52:15;101289.00;;;8.09;69.85
59104;BME280;51449;51.676;5.812;2022-10-10T05:54:37;101293.69;;;8.08;69.80
59104;BME280;51449;51.676;5.812;2022-10-10T05:56:59;101297.25;;;8.09;69.59
59104;BME280;51449;51.676;5.812;2022-10-10T05:59:21;101295.31;;;8.09;69.62
59104;BME280;51449;51.676;5.812;2022-10-10T06:01:43;101293.69;;;8.08;70.00
59104;BME280;51449;51.676;5.812;2022-10-10T06:04:05;101289.81;;;8.09;69.97
59104;BME280;51449;51.676;5.812;2022-10-10T06:06:27;101293.69;;;8.08;69.65
59104;BME280;51449;51.676;5.812;2022-10-10T06:08:49;101289.81;;;8.09;70.64
59104;BME280;51449;51.676;5.812;2022-10-10T06:11:13;101293.41;;;8.10;70.57
59104;BME280;51449;51.676;5.812;2022-10-10T06:13:37;101292.25;;;8.11;70.76
59104;BME280;51449;51.676;5.812;2022-10-10T06:15:59;101288.09;;;8.13;70.79
59104;BME280;51449;51.676;5.812;2022-10-10T06:18:21;101294.91;;;8.16;70.35
59104;BME280;51449;51.676;5.812;2022-10-10T06:20:43;101295.41;;;8.18;70.53
59104;BME280;51449;51.676;5.812;2022-10-10T06:23:06;101293.69;;;8.22;70.34
59104;BME280;51449;51.676;5.812;2022-10-10T06:25:31;101294.69;;;8.26;70.61
59104;BME280;51449;51.676;5.812;2022-10-10T06:28:03;101300.38;;;8.30;70.59
59104;BME280;51449;51.676;5.812;2022-10-10T06:30:26;101295.91;;;8.34;70.67
59104;BME280;51449;51.676;5.812;2022-10-10T06:32:48;101307.31;;;8.41;70.29
59104;BME280;51449;51.676;5.812;2022-10-10T06:35:15;101306.09;;;8.47;70.34
59104;BME280;51449;51.676;5.812;2022-10-10T06:37:36;101304.75;;;8.59;70.41
59104;BME280;51449;51.676;5.812;2022-10-10T06:39:58;101305.16;;;8.66;70.22
59104;BME280;51449;51.676;5.812;2022-10-10T06:42:20;101303.91;;;8.72;70.24
59104;BME280;51449;51.676;5.812;2022-10-10T06:44:48;101310.44;;;8.98;69.87
59104;BME280;51449;51.676;5.812;2022-10-10T06:47:10;101310.75;;;9.19;69.17
59104;BME280;51449;51.676;5.812;2022-10-10T06:49:33;101313.81;;;9.18;69.51
59104;BME280;51449;51.676;5.812;2022-10-10T06:51:55;101313.81;;;9.18;69.84
59104;BME280;51449;51.676;5.812;2022-10-10T06:54:16;101321.75;;;9.19;69.76
59104;BME280;51449;51.676;5.812;2022-10-10T06:56:38;101320.31;;;9.22;69.94
59104;BME280;51449;51.676;5.812;2022-10-10T06:59:00;101318.03;;;9.24;70.17
59104;BME280;51449;51.676;5.812;2022-10-10T07:01:23;101317.44;;;9.27;70.50
59104;BME280;51449;51.676;5.812;2022-10-10T07:03:47;101316.19;;;9.33;70.48
59104;BME280;51449;51.676;5.812;2022-10-10T07:06:09;101320.31;;;9.45;70.74
59104;BME280;51449;51.676;5.812;2022-10-10T07:08:32;101322.00;;;9.54;70.59
59104;BME280;51449;51.676;5.812;2022-10-10T07:10:55;101318.16;;;9.64;70.69
59104;BME280;51449;51.676;5.812;2022-10-10T07:13:17;101316.44;;;9.77;70.96
59104;BME280;51449;51.676;5.812;2022-10-10T07:15:41;101316.66;;;9.89;71.27
59104;BME280;51449;51.676;5.812;2022-10-10T07:18:03;101312.16;;;10.02;71.68
59104;BME280;51449;51.676;5.812;2022-10-10T07:20:25;101318.38;;;10.16;72.04
59104;BME280;51449;51.676;5.812;2022-10-10T07:22:48;101314.09;;;10.33;72.33
59104;BME280;51449;51.676;5.812;2022-10-10T07:25:10;101312.19;;;10.50;72.37
59104;BME280;51449;51.676;5.812;2022-10-10T07:27:32;101312.69;;;10.70;72.46
59104;BME280;51449;51.676;5.812;2022-10-10T07:29:54;101320.16;;;10.87;72.83
59104;BME280;51449;51.676;5.812;2022-10-10T07:32:16;101309.81;;;11.01;73.08
59104;BME280;51449;51.676;5.812;2022-10-10T07:34:38;101314.81;;;11.17;72.79
59104;BME280;51449;51.676;5.812;2022-10-10T07:36:59;101316.75;;;11.33;72.53
59104;BME280;51449;51.676;5.812;2022-10-10T07:39:22;101327.59;;;11.47;72.46
59104;BME280;51449;51.676;5.812;2022-10-10T07:41:45;101331.78;;;11.62;72.56
59104;BME280;51449;51.676;5.812;2022-10-10T07:44:07;101333.22;;;11.77;72.25
59104;BME280;51449;51.676;5.812;2022-10-10T07:46:29;101328.66;;;11.90;72.41
59104;BME280;51449;51.676;5.812;2022-10-10T07:48:54;101337.53;;;12.04;72.18
59104;BME280;51449;51.676;5.812;2022-10-10T07:51:16;101343.31;;;12.20;71.68
59104;BME280;51449;51.676;5.812;2022-10-10T07:53:38;101336.75;;;12.33;71.69
59104;BME280;51449;51.676;5.812;2022-10-10T07:56:05;101340.88;;;12.48;71.32
59104;BME280;51449;51.676;5.812;2022-10-10T07:58:28;101344.22;;;12.62;71.38
59104;BME280;51449;51.676;5.812;2022-10-10T08:00:50;101342.81;;;12.77;71.11
59104;BME280;51449;51.676;5.812;2022-10-10T08:03:22;101337.16;;;12.95;71.11
59104;BME280;51449;51.676;5.812;2022-10-10T08:05:44;101344.88;;;13.10;70.74
59104;BME280;51449;51.676;5.812;2022-10-10T08:08:09;101344.56;;;13.24;70.48
59104;BME280;51449;51.676;5.812;2022-10-10T08:10:31;101341.06;;;13.36;70.08
59104;BME280;51449;51.676;5.812;2022-10-10T08:12:53;101349.09;;;13.49;69.79
59104;BME280;51449;51.676;5.812;2022-10-10T08:15:15;101351.69;;;13.67;69.65
59104;BME280;51449;51.676;5.812;2022-10-10T08:17:37;101344.91;;;13.77;69.59
59104;BME280;51449;51.676;5.812;2022-10-10T08:19:59;101342.63;;;13.91;69.34
59104;BME280;51449;51.676;5.812;2022-10-10T08:22:21;101341.28;;;14.09;69.02
59104;BME280;51449;51.676;5.812;2022-10-10T08:24:42;101350.50;;;14.26;68.57
59104;BME280;51449;51.676;5.812;2022-10-10T08:27:04;101350.16;;;14.40;68.13
59104;BME280;51449;51.676;5.812;2022-10-10T08:29:26;101344.84;;;14.47;67.58
59104;BME280;51449;51.676;5.812;2022-10-10T08:31:48;101347.88;;;14.54;67.08
59104;BME280;51449;51.676;5.812;2022-10-10T08:34:10;101344.63;;;14.64;66.99
59104;BME280;51449;51.676;5.812;2022-10-10T08:36:32;101346.56;;;14.76;66.72
59104;BME280;51449;51.676;5.812;2022-10-10T08:38:54;101338.94;;;14.85;66.43
59104;BME280;51449;51.676;5.812;2022-10-10T08:41:37;101343.06;;;14.91;66.32
59104;BME280;51449;51.676;5.812;2022-10-10T08:47:20;101345.03;;;14.91;65.77
59104;BME280;51449;51.676;5.812;2022-10-10T08:50:27;101348.13;;;15.02;65.81
59104;BME280;51449;51.676;5.812;2022-10-10T08:53:14;101347.75;;;15.15;65.91
59104;BME280;51449;51.676;5.812;2022-10-10T08:55:49;101343.19;;;15.23;65.81
59104;BME280;51449;51.676;5.812;2022-10-10T08:58:26;101339.28;;;15.24;65.43
59104;BME280;51449;51.676;5.812;2022-10-10T09:01:09;101347.25;;;15.26;65.02
59104;BME280;51449;51.676;5.812;2022-10-10T09:03:44;101348.50;;;15.28;65.25
59104;BME280;51449;51.676;5.812;2022-10-10T09:06:26;101351.47;;;15.35;65.39
59104;BME280;51449;51.676;5.812;2022-10-10T09:14:34;101357.00;;;15.76;64.98
59104;BME280;51449;51.676;5.812;2022-10-10T09:17:34;101356.66;;;15.93;64.85
59104;BME280;51449;51.676;5.812;2022-10-10T09:20:28;101367.69;;;16.05;64.16
59104;BME280;51449;51.676;5.812;2022-10-10T09:26:14;101359.78;;;16.23;63.25
59104;BME280;51449;51.676;5.812;2022-10-10T09:29:02;101359.69;;;16.36;62.80
59104;BME280;51449;51.676;5.812;2022-10-10T09:31:45;101370.28;;;16.46;62.83
59104;BME280;51449;51.676;5.812;2022-10-10T09:34:35;101364.22;;;16.60;62.90
59104;BME280;51449;51.676;5.812;2022-10-10T09:36:59;101354.91;;;16.68;62.16
59104;BME280;51449;51.676;5.812;2022-10-10T09:39:44;101361.88;;;16.78;62.23
59104;BME280;51449;51.676;5.812;2022-10-10T09:42:14;101371.22;;;16.85;61.86
59104;BME280;51449;51.676;5.812;2022-10-10T09:44:42;101367.06;;;16.95;61.99
59104;BME280;51449;51.676;5.812;2022-10-10T09:47:04;101375.13;;;17.00;61.58
59104;BME280;51449;51.676;5.812;2022-10-10T09:49:28;101373.94;;;17.01;61.68
59104;BME280;51449;51.676;5.812;2022-10-10T09:51:50;101378.25;;;16.99;61.32
59104;BME280;51449;51.676;5.812;2022-10-10T09:54:14;101381.13;;;17.02;61.67
59104;BME280;51449;51.676;5.812;2022-10-10T09:56:43;101388.75;;;17.05;61.80
59104;BME280;51449;51.676;5.812;2022-10-10T09:59:41;101392.84;;;17.11;61.88
59104;BME280;51449;51.676;5.812;2022-10-10T10:02:23;101393.44;;;17.21;61.51
59104;BME280;51449;51.676;5.812;2022-10-10T10:04:48;101394.34;;;17.25;61.76
59104;BME280;51449;51.676;5.812;2022-10-10T10:07:33;101388.13;;;17.31;61.45
59104;BME280;51449;51.676;5.812;2022-10-10T10:10:02;101389.38;;;17.34;61.07
59104;BME280;51449;51.676;5.812;2022-10-10T10:12:41;101386.19;;;17.36;60.71
59104;BME280;51449;51.676;5.812;2022-10-10T10:15:15;101380.28;;;17.37;60.44
59104;BME280;51449;51.676;5.812;2022-10-10T10:17:37;101389.88;;;17.40;60.46
59104;BME280;51449;51.676;5.812;2022-10-10T10:19:59;101392.31;;;17.41;60.21
59104;BME280;51449;51.676;5.812;2022-10-10T10:22:37;101389.53;;;17.41;59.98
59104;BME280;51449;51.676;5.812;2022-10-10T10:28:19;101385.91;;;17.41;60.55
59104;BME280;51449;51.676;5.812;2022-10-10T10:30:43;101385.09;;;17.40;60.69
59104;BME280;51449;51.676;5.812;2022-10-10T10:33:13;101389.94;;;17.43;60.93
59104;BME280;51449;51.676;5.812;2022-10-10T10:42:07;101394.94;;;17.53;60.59
59104;BME280;51449;51.676;5.812;2022-10-10T10:44:58;101393.41;;;17.56;60.26
59104;BME280;51449;51.676;5.812;2022-10-10T10:50:38;101404.00;;;17.70;60.14
59104;BME280;51449;51.676;5.812;2022-10-10T10:56:40;101394.78;;;17.85;59.35
59104;BME280;51449;51.676;5.812;2022-10-10T11:00:09;101396.34;;;18.06;59.65
59104;BME280;51449;51.676;5.812;2022-10-10T11:11:55;101410.63;;;18.73;57.31
59104;BME280;51449;51.676;5.812;2022-10-10T11:17:32;101413.75;;;18.95;57.05
59104;BME280;51449;51.676;5.812;2022-10-10T11:20:15;101421.31;;;18.94;56.91
59104;BME280;51449;51.676;5.812;2022-10-10T11:23:38;101424.50;;;18.93;57.05
59104;BME280;51449;51.676;5.812;2022-10-10T11:25:47;101418.16;;;18.96;56.92
59104;BME280;51449;51.676;5.812;2022-10-10T11:28:19;101421.84;;;19.03;56.77
59104;BME280;51449;51.676;5.812;2022-10-10T11:30:51;101427.97;;;19.13;56.73
59104;BME280;51449;51.676;5.812;2022-10-10T11:33:27;101424.03;;;19.17;55.94
59104;BME280;51449;51.676;5.812;2022-10-10T11:36:05;101432.47;;;19.21;55.56
59104;BME280;51449;51.676;5.812;2022-10-10T11:43:52;101426.81;;;19.48;54.93
59104;BME280;51449;51.676;5.812;2022-10-10T11:54:11;101426.41;;;19.76;53.92
59104;BME280;51449;51.676;5.812;2022-10-10T11:56:43;101428.41;;;19.75;53.16
59104;BME280;51449;51.676;5.812;2022-10-10T11:59:14;101422.25;;;19.66;52.74
59104;BME280;51449;51.676;5.812;2022-10-10T12:01:45;101424.56;;;19.60;53.58
59104;BME280;51449;51.676;5.812;2022-10-10T12:04:10;101422.97;;;19.59;53.18
59104;BME280;51449;51.676;5.812;2022-10-10T12:09:41;101415.94;;;19.69;53.06
59104;BME280;51449;51.676;5.812;2022-10-10T12:12:14;101414.44;;;19.79;53.68
59104;BME280;51449;51.676;5.812;2022-10-10T12:14:47;101424.13;;;19.88;53.48
59104;BME280;51449;51.676;5.812;2022-10-10T12:17:20;101432.16;;;19.90;53.60
59104;BME280;51449;51.676;5.812;2022-10-10T12:19:50;101428.59;;;19.93;53.21
59104;BME280;51449;51.676;5.812;2022-10-10T12:22:22;101436.63;;;19.98;53.00
59104;BME280;51449;51.676;5.812;2022-10-10T12:25:07;101427.88;;;20.03;53.35
59104;BME280;51449;51.676;5.812;2022-10-10T12:27:45;101422.28;;;20.03;52.64
59104;BME280;51449;51.676;5.812;2022-10-10T12:30:23;101430.69;;;20.03;53.01
59104;BME280;51449;51.676;5.812;2022-10-10T12:32:46;101429.56;;;20.12;53.53
59104;BME280;51449;51.676;5.812;2022-10-10T12:40:33;101446.03;;;20.20;52.72
59104;BME280;51449;51.676;5.812;2022-10-10T12:46:30;101451.03;;;20.00;52.97
59104;BME280;51449;51.676;5.812;2022-10-10T12:49:14;101455.34;;;19.94;53.52
59104;BME280;51449;51.676;5.812;2022-10-10T12:51:39;101459.63;;;19.84;53.72
59104;BME280;51449;51.676;5.812;2022-10-10T12:54:05;101455.16;;;19.76;54.07
59104;BME280;51449;51.676;5.812;2022-10-10T12:56:35;101452.31;;;19.73;54.07
59104;BME280;51449;51.676;5.812;2022-10-10T12:59:00;101456.94;;;19.61;54.51
59104;BME280;51449;51.676;5.812;2022-10-10T13:01:25;101448.47;;;19.54;54.58
59104;BME280;51449;51.676;5.812;2022-10-10T13:03:53;101444.81;;;19.50;54.97
59104;BME280;51449;51.676;5.812;2022-10-10T13:06:37;101455.56;;;19.48;55.45
59104;BME280;51449;51.676;5.812;2022-10-10T13:09:19;101463.13;;;19.44;55.64
59104;BME280;51449;51.676;5.812;2022-10-10T13:12:02;101470.59;;;19.36;55.68
59104;BME280;51449;51.676;5.812;2022-10-10T13:14:36;101471.31;;;19.30;55.69
59104;BME280;51449;51.676;5.812;2022-10-10T13:17:00;101468.84;;;19.24;56.08
59104;BME280;51449;51.676;5.812;2022-10-10T13:19:24;101474.31;;;19.17;56.57
59104;BME280;51449;51.676;5.812;2022-10-10T13:21:46;101476.69;;;19.15;56.83
59104;BME280;51449;51.676;5.812;2022-10-10T13:24:15;101472.28;;;19.14;56.85
59104;BME280;51449;51.676;5.812;2022-10-10T13:26:45;101473.41;;;19.10;57.22
59104;BME280;51449;51.676;5.812;2022-10-10T13:29:33;101479.69;;;19.03;57.76
59104;BME280;51449;51.676;5.812;2022-10-10T13:32:00;101485.19;;;18.96;58.32
59104;BME280;51449;51.676;5.812;2022-10-10T13:34:35;101488.28;;;18.91;58.80
59104;BME280;51449;51.676;5.812;2022-10-10T13:37:02;101496.56;;;18.84;58.87
59104;BME280;51449;51.676;5.812;2022-10-10T13:39:27;101498.88;;;18.78;59.34
59104;BME280;51449;51.676;5.812;2022-10-10T13:41:51;101499.50;;;18.71;60.07
59104;BME280;51449;51.676;5.812;2022-10-10T13:44:21;101509.34;;;18.65;60.36
59104;BME280;51449;51.676;5.812;2022-10-10T13:46:45;101516.44;;;18.59;60.66
59104;BME280;51449;51.676;5.812;2022-10-10T13:49:28;101527.78;;;18.47;60.73
59104;BME280;51449;51.676;5.812;2022-10-10T13:52:03;101537.94;;;18.35;60.97
59104;BME280;51449;51.676;5.812;2022-10-10T13:54:46;101544.88;;;18.22;61.57
59104;BME280;51449;51.676;5.812;2022-10-10T13:57:13;101552.28;;;18.14;62.01
59104;BME280;51449;51.676;5.812;2022-10-10T13:59:36;101555.72;;;18.08;62.27
59104;BME280;51449;51.676;5.812;2022-10-10T14:02:00;101556.84;;;18.03;62.48
59104;BME280;51449;51.676;5.812;2022-10-10T14:04:31;101553.97;;;18.00;62.58
59104;BME280;51449;51.676;5.812;2022-10-10T14:07:03;101556.69;;;17.96;62.53
59104;BME280;51449;51.676;5.812;2022-10-10T14:09:31;101560.56;;;17.91;62.62
59104;BME280;51449;51.676;5.812;2022-10-10T14:12:00;101559.25;;;17.85;62.96
59104;BME280;51449;51.676;5.812;2022-10-10T14:14:43;101563.47;;;17.79;63.12
59104;BME280;51449;51.676;5.812;2022-10-10T14:17:09;101566.53;;;17.74;63.18
59104;BME280;51449;51.676;5.812;2022-10-10T14:19:32;101577.63;;;17.70;63.67
59104;BME280;51449;51.676;5.812;2022-10-10T14:21:54;101579.13;;;17.68;64.05
59104;BME280;51449;51.676;5.812;2022-10-10T14:24:16;101589.41;;;17.64;64.20
59104;BME280;51449;51.676;5.812;2022-10-10T14:26:38;101585.66;;;17.56;64.70
59104;BME280;51449;51.676;5.812;2022-10-10T14:28:59;101595.00;;;17.48;64.83
59104;BME280;51449;51.676;5.812;2022-10-10T14:31:21;101596.81;;;17.40;65.16